createdAt,value
2018-04-14T00:00:49.976Z,8.30
2018-04-14T00:03:17.589Z,8.20
2018-04-14T00:05:45.172Z,8.20
2018-04-14T00:08:12.797Z,8.20
2018-04-14T00:10:40.369Z,8.20
2018-04-14T00:13:07.949Z,8.20
2018-04-14T00:15:35.786Z,8.20
2018-04-14T00:18:03.361Z,8.20
2018-04-14T00:20:30.978Z,8.20
2018-04-14T00:22:58.564Z,8.20
2018-04-14T00:25:28.451Z,8.20
2018-04-14T00:27:56.067Z,8.20
2018-04-14T00:30:25.834Z,8.20
2018-04-14T00:32:55.679Z,8.20
2018-04-14T00:35:25.139Z,8.20
2018-04-14T00:37:52.724Z,8.10
2018-04-14T00:40:20.341Z,8.10
2018-04-14T00:42:47.927Z,8.20
2018-04-14T00:45:15.534Z,8.20
2018-04-14T00:47:43.117Z,8.20
2018-04-14T00:50:10.729Z,8.20
2018-04-14T00:52:38.301Z,8.10
2018-04-14T00:55:05.910Z,8.10
2018-04-14T00:57:33.489Z,8.10
2018-04-14T01:00:01.098Z,8.10
2018-04-14T01:02:28.682Z,8.10
2018-04-14T01:04:56.289Z,8.10
2018-04-14T01:07:23.906Z,8.10
2018-04-14T01:09:51.514Z,8.10
2018-04-14T01:12:19.090Z,8.00
2018-04-14T01:14:46.704Z,8.10
2018-04-14T01:17:15.077Z,8.00
2018-04-14T01:19:42.693Z,8.00
2018-04-14T01:22:10.273Z,8.00
2018-04-14T01:24:37.898Z,8.00
2018-04-14T01:27:05.487Z,8.00
2018-04-14T01:29:33.114Z,8.00
2018-04-14T01:32:00.694Z,8.00
2018-04-14T01:34:28.323Z,8.10
2018-04-14T01:36:58.245Z,8.10
2018-04-14T01:39:25.859Z,8.10
2018-04-14T01:41:53.504Z,8.00
2018-04-14T01:44:21.081Z,8.10
2018-04-14T01:46:48.697Z,8.10
2018-04-14T01:49:16.270Z,8.10
2018-04-14T01:51:43.892Z,8.10
2018-04-14T01:54:11.612Z,8.10
2018-04-14T01:56:39.264Z,8.10
2018-04-14T01:59:06.879Z,8.10
2018-04-14T02:01:34.473Z,8.10
2018-04-14T02:04:02.087Z,8.00
2018-04-14T02:06:29.666Z,8.00
2018-04-14T02:08:57.294Z,8.00
2018-04-14T02:11:24.897Z,8.00
2018-04-14T02:13:52.481Z,8.00
2018-04-14T02:16:20.090Z,8.00
2018-04-14T02:18:47.666Z,7.90
2018-04-14T02:21:15.280Z,7.90
2018-04-14T02:23:42.892Z,7.90
2018-04-14T02:26:10.468Z,7.90
2018-04-14T02:28:38.794Z,7.90
2018-04-14T02:31:06.413Z,7.90
2018-04-14T02:33:33.995Z,7.90
2018-04-14T02:36:01.614Z,7.90
2018-04-14T02:38:29.197Z,7.90
2018-04-14T02:41:00.100Z,7.90
2018-04-14T02:43:27.681Z,7.90
2018-04-14T02:45:55.299Z,7.90
2018-04-14T02:48:22.869Z,7.90
2018-04-14T02:50:50.490Z,7.90
2018-04-14T02:53:18.170Z,7.90
2018-04-14T02:55:45.789Z,7.90
2018-04-14T02:58:13.413Z,7.90
2018-04-14T03:00:40.996Z,7.90
2018-04-14T03:03:08.616Z,7.90
2018-04-14T03:05:36.198Z,8.00
2018-04-14T03:08:03.818Z,7.90
2018-04-14T03:10:31.433Z,8.00
2018-04-14T03:12:59.022Z,8.00
2018-04-14T03:15:26.639Z,8.00
2018-04-14T03:17:54.256Z,8.00
2018-04-14T03:20:23.639Z,8.00
2018-04-14T03:22:51.203Z,8.00
2018-04-14T03:25:18.810Z,8.00
2018-04-14T03:27:46.431Z,8.00
2018-04-14T03:30:14.033Z,8.00
2018-04-14T03:32:41.602Z,8.00
2018-04-14T03:35:09.209Z,7.90
2018-04-14T03:37:36.784Z,8.00
2018-04-14T03:40:05.152Z,8.00
2018-04-14T03:42:33.503Z,8.00
2018-04-14T03:45:01.129Z,8.00
2018-04-14T03:47:28.708Z,8.00
2018-04-14T03:49:56.309Z,8.00
2018-04-14T03:52:23.913Z,8.00
2018-04-14T03:54:51.487Z,8.00
2018-04-14T03:57:19.128Z,7.90
2018-04-14T03:59:46.907Z,7.90
2018-04-14T04:02:14.793Z,8.00
2018-04-14T04:04:42.406Z,7.90
2018-04-14T04:07:09.960Z,7.90
2018-04-14T04:09:38.333Z,7.90
2018-04-14T04:12:05.924Z,7.90
2018-04-14T04:14:33.523Z,7.90
2018-04-14T04:17:01.089Z,7.90
2018-04-14T04:19:41.428Z,7.90
2018-04-14T04:22:20.856Z,8.00
2018-04-14T04:25:00.198Z,7.90
2018-04-14T04:27:27.777Z,7.90
2018-04-14T04:29:55.387Z,8.00
2018-04-14T04:32:23.725Z,8.00
2018-04-14T04:34:51.328Z,7.90
2018-04-14T04:37:19.693Z,8.00
2018-04-14T04:39:48.021Z,8.00
2018-04-14T04:42:15.624Z,8.00
2018-04-14T04:44:43.189Z,8.00
2018-04-14T04:47:10.784Z,8.00
2018-04-14T04:49:38.391Z,8.00
2018-04-14T04:52:05.991Z,7.90
2018-04-14T04:54:34.317Z,7.90
2018-04-14T04:57:01.934Z,7.90
2018-04-14T04:59:29.500Z,7.90
2018-04-14T05:01:57.070Z,7.90
2018-04-14T05:04:24.684Z,7.90
2018-04-14T05:06:52.249Z,7.90
2018-04-14T05:09:19.844Z,7.90
2018-04-14T05:11:47.409Z,7.90
2018-04-14T05:14:15.027Z,7.90
2018-04-14T05:16:42.597Z,7.90
2018-04-14T05:19:10.179Z,7.90
2018-04-14T05:21:38.536Z,7.90
2018-04-14T05:24:06.149Z,7.80
2018-04-14T05:26:33.769Z,7.80
2018-04-14T05:29:02.140Z,7.80
2018-04-14T05:31:29.719Z,7.80
2018-04-14T05:33:57.324Z,7.80
2018-04-14T05:36:24.898Z,7.80
2018-04-14T05:38:52.504Z,7.80
2018-04-14T05:41:23.004Z,7.80
2018-04-14T05:43:50.574Z,7.80
2018-04-14T05:46:18.962Z,7.80
2018-04-14T05:48:47.292Z,7.80
2018-04-14T05:51:14.919Z,7.80
2018-04-14T05:53:42.490Z,7.80
2018-04-14T05:56:10.057Z,7.80
2018-04-14T05:58:37.660Z,7.80
2018-04-14T06:01:05.225Z,7.80
2018-04-14T06:03:32.850Z,7.80
2018-04-14T06:06:00.416Z,7.80
2018-04-14T06:08:28.951Z,7.80
2018-04-14T06:10:56.668Z,7.80
2018-04-14T06:13:24.252Z,7.90
2018-04-14T06:15:51.837Z,7.80
2018-04-14T06:18:20.209Z,7.80
2018-04-14T06:20:47.779Z,7.80
2018-04-14T06:23:15.385Z,7.90
2018-04-14T06:25:42.994Z,7.80
2018-04-14T06:28:10.669Z,7.90
2018-04-14T06:30:38.231Z,7.90
2018-04-14T06:33:05.848Z,7.90
2018-04-14T06:35:34.216Z,7.90
2018-04-14T06:38:01.786Z,7.90
2018-04-14T06:40:29.401Z,7.90
2018-04-14T06:42:57.011Z,7.90
2018-04-14T06:45:24.582Z,7.90
2018-04-14T06:47:52.190Z,7.90
2018-04-14T06:50:19.802Z,8.00
2018-04-14T06:52:47.422Z,8.00
2018-04-14T06:55:14.991Z,8.00
2018-04-14T06:57:42.608Z,8.00
2018-04-14T07:00:10.986Z,8.00
2018-04-14T07:02:38.597Z,8.00
2018-04-14T07:05:08.923Z,8.00
2018-04-14T07:07:36.525Z,8.00
2018-04-14T07:10:04.106Z,8.10
2018-04-14T07:12:33.807Z,8.10
2018-04-14T07:15:01.423Z,8.10
2018-04-14T07:17:29.057Z,8.10
2018-04-14T07:19:56.639Z,8.10
2018-04-14T07:22:24.333Z,8.10
2018-04-14T07:24:51.922Z,8.10
2018-04-14T07:27:19.551Z,8.10
2018-04-14T07:29:47.148Z,8.10
2018-04-14T07:32:14.745Z,8.10
2018-04-14T07:34:42.552Z,8.10
2018-04-14T07:37:10.209Z,8.10
2018-04-14T07:39:38.480Z,8.10
2018-04-14T07:42:06.107Z,8.20
2018-04-14T07:44:33.697Z,8.10
2018-04-14T07:47:01.360Z,8.10
2018-04-14T07:49:28.954Z,8.20
2018-04-14T07:51:56.542Z,8.20
2018-04-14T07:54:24.153Z,8.20
2018-04-14T07:56:51.715Z,8.20
2018-04-14T07:59:19.579Z,8.20
2018-04-14T08:01:48.912Z,8.20
2018-04-14T08:04:16.540Z,8.20
2018-04-14T08:06:44.122Z,8.30
2018-04-14T08:09:11.750Z,8.20
2018-04-14T08:11:39.371Z,8.30
2018-04-14T08:14:06.962Z,8.30
2018-04-14T08:16:34.570Z,8.30
2018-04-14T08:19:02.152Z,8.30
2018-04-14T08:21:29.757Z,8.40
2018-04-14T08:23:57.326Z,8.40
2018-04-14T08:26:24.957Z,8.50
2018-04-14T08:28:52.523Z,8.50
2018-04-14T08:31:20.101Z,8.50
2018-04-14T08:33:47.711Z,8.50
2018-04-14T08:36:15.293Z,8.60
2018-04-14T08:38:42.905Z,8.60
2018-04-14T08:41:10.501Z,8.60
2018-04-14T08:43:38.114Z,8.60
2018-04-14T08:46:07.856Z,8.60
2018-04-14T08:48:36.544Z,8.60
2018-04-14T08:51:09.061Z,8.60
2018-04-14T08:53:42.141Z,8.70
2018-04-14T08:56:13.200Z,8.80
2018-04-14T08:58:42.878Z,8.80
2018-04-14T09:01:12.983Z,8.80
2018-04-14T09:03:46.844Z,8.80
2018-04-14T09:06:15.273Z,8.70
2018-04-14T09:08:43.876Z,8.70
2018-04-14T09:11:12.142Z,8.70
2018-04-14T09:13:39.836Z,8.80
2018-04-14T09:16:07.579Z,8.80
2018-04-14T09:18:36.150Z,8.80
2018-04-14T09:21:03.850Z,8.80
2018-04-14T09:23:32.216Z,8.80
2018-04-14T09:26:00.156Z,8.80
2018-04-14T09:28:27.786Z,8.80
2018-04-14T09:30:55.395Z,8.80
2018-04-14T09:33:23.793Z,8.90
2018-04-14T09:35:51.448Z,8.90
2018-04-14T09:38:19.104Z,8.90
2018-04-14T09:40:46.771Z,8.90
2018-04-14T09:43:14.466Z,8.90
2018-04-14T09:45:42.035Z,8.90
2018-04-14T09:48:09.636Z,8.90
2018-04-14T09:50:37.250Z,8.90
2018-04-14T09:53:04.914Z,9.00
2018-04-14T09:55:32.481Z,8.90
2018-04-14T09:58:00.097Z,9.00
2018-04-14T10:00:27.673Z,8.90
2018-04-14T10:03:00.145Z,9.00
2018-04-14T10:05:27.669Z,9.00
2018-04-14T10:07:55.286Z,9.00
2018-04-14T10:10:22.889Z,9.00
2018-04-14T10:12:50.452Z,9.00
2018-04-14T10:15:18.065Z,9.00
2018-04-14T10:17:45.789Z,9.00
2018-04-14T10:20:13.404Z,9.00
2018-04-14T10:22:44.743Z,9.00
2018-04-14T10:25:13.280Z,9.00
2018-04-14T10:27:41.742Z,9.10
2018-04-14T10:30:09.366Z,9.10
2018-04-14T10:32:39.412Z,9.10
2018-04-14T10:35:11.771Z,9.10
2018-04-14T10:37:45.748Z,9.10
2018-04-14T10:40:16.212Z,9.10
2018-04-14T10:42:46.982Z,9.10
2018-04-14T10:45:16.063Z,9.20
2018-04-14T10:47:44.988Z,9.20
2018-04-14T10:50:14.137Z,9.30
2018-04-14T10:52:44.732Z,9.30
2018-04-14T10:55:13.568Z,9.30
2018-04-14T10:57:41.205Z,9.40
2018-04-14T11:00:08.780Z,9.40
2018-04-14T11:02:36.348Z,9.40
2018-04-14T11:05:03.957Z,9.50
2018-04-14T11:07:32.327Z,9.60
2018-04-14T11:10:00.664Z,9.70
2018-04-14T11:12:28.271Z,9.70
2018-04-14T11:14:57.430Z,9.80
2018-04-14T11:17:28.126Z,9.90
2018-04-14T11:19:59.956Z,10.00
2018-04-14T11:22:30.504Z,10.00
2018-04-14T11:24:58.330Z,10.10
2018-04-14T11:27:25.900Z,10.20
2018-04-14T11:29:53.515Z,10.30
2018-04-14T11:32:21.087Z,10.40
2018-04-14T11:34:48.717Z,10.70
2018-04-14T11:37:16.289Z,10.90
2018-04-14T11:39:43.881Z,11.10
2018-04-14T11:42:11.502Z,11.30
2018-04-14T11:44:39.174Z,11.30
2018-04-14T11:47:06.785Z,11.20
2018-04-14T11:49:34.367Z,11.10
2018-04-14T11:52:01.976Z,11.10
2018-04-14T11:54:29.618Z,11.10
2018-04-14T11:56:57.243Z,11.10
2018-04-14T11:59:24.861Z,11.20
2018-04-14T12:01:52.435Z,11.30
2018-04-14T12:04:20.007Z,11.40
2018-04-14T12:06:47.685Z,11.50
2018-04-14T12:09:15.300Z,11.60
2018-04-14T12:11:43.016Z,11.50
2018-04-14T12:14:10.607Z,11.60
2018-04-14T12:16:38.235Z,11.70
2018-04-14T12:19:05.874Z,11.80
2018-04-14T12:21:33.454Z,11.70
2018-04-14T12:24:01.032Z,11.70
2018-04-14T12:26:29.421Z,11.50
2018-04-14T12:28:57.768Z,11.40
2018-04-14T12:31:25.383Z,11.40
2018-04-14T12:33:52.993Z,11.50
2018-04-14T12:36:20.603Z,11.60
2018-04-14T12:38:48.197Z,11.60
2018-04-14T12:41:15.811Z,11.70
2018-04-14T12:43:43.393Z,11.80
2018-04-14T12:46:11.021Z,11.80
2018-04-14T12:48:39.422Z,11.80
2018-04-14T12:51:07.007Z,11.70
2018-04-14T12:53:34.666Z,11.70
2018-04-14T12:56:03.059Z,11.80
2018-04-14T12:58:30.776Z,11.80
2018-04-14T13:00:59.157Z,11.90
2018-04-14T13:03:27.753Z,11.80
2018-04-14T13:05:56.885Z,11.80
2018-04-14T13:08:26.253Z,11.80
2018-04-14T13:10:56.773Z,11.80
2018-04-14T13:13:29.496Z,11.80
2018-04-14T13:15:59.522Z,11.90
2018-04-14T13:18:29.590Z,11.80
2018-04-14T13:20:58.806Z,11.80
2018-04-14T13:23:28.369Z,11.70
2018-04-14T13:25:57.351Z,11.70
2018-04-14T13:28:29.496Z,11.70
2018-04-14T13:31:03.058Z,11.70
2018-04-14T13:33:32.062Z,11.70
2018-04-14T13:36:05.388Z,11.70
2018-04-14T13:38:37.874Z,11.80
2018-04-14T13:41:07.325Z,11.80
2018-04-14T13:43:35.611Z,11.90
2018-04-14T13:46:04.104Z,12.20
2018-04-14T13:48:33.293Z,12.40
2018-04-14T13:51:02.779Z,12.50
2018-04-14T13:53:31.824Z,12.60
2018-04-14T13:56:03.746Z,12.70
2018-04-14T13:58:34.316Z,12.80
2018-04-14T14:01:06.042Z,12.80
2018-04-14T14:03:34.495Z,12.90
2018-04-14T14:06:06.106Z,12.90
2018-04-14T14:08:34.410Z,12.90
2018-04-14T14:11:05.505Z,12.80
2018-04-14T14:13:34.711Z,12.70
2018-04-14T14:16:03.720Z,12.50
2018-04-14T14:18:33.662Z,12.50
2018-04-14T14:21:03.768Z,12.50
2018-04-14T14:23:33.504Z,12.50
2018-04-14T14:26:04.189Z,12.50
2018-04-14T14:28:32.466Z,12.50
2018-04-14T14:33:35.363Z,12.50
2018-04-14T14:36:04.791Z,12.50
2018-04-14T14:38:33.019Z,12.50
2018-04-14T14:41:02.538Z,12.50
2018-04-14T14:43:35.274Z,12.40
2018-04-14T14:46:03.578Z,12.30
2018-04-14T14:48:32.221Z,12.20
2018-04-14T14:51:01.257Z,12.10
2018-04-14T14:53:30.653Z,12.10
2018-04-14T14:56:01.028Z,12.00
2018-04-14T14:58:29.363Z,12.00
2018-04-14T15:00:58.152Z,12.00
2018-04-14T15:03:26.200Z,11.90
2018-04-14T15:05:54.510Z,11.90
2018-04-14T15:08:22.735Z,11.90
2018-04-14T15:10:51.653Z,11.80
2018-04-14T15:13:19.788Z,11.80
2018-04-14T15:15:48.085Z,11.80
2018-04-14T15:18:16.159Z,11.80
2018-04-14T15:20:44.293Z,11.80
2018-04-14T15:23:13.142Z,11.80
2018-04-14T15:25:41.908Z,11.80
2018-04-14T15:28:09.999Z,11.80
2018-04-14T15:30:39.045Z,11.80
2018-04-14T15:33:07.105Z,11.80
2018-04-14T15:35:35.168Z,11.80
2018-04-14T15:38:03.203Z,11.80
2018-04-14T15:40:31.226Z,11.80
2018-04-14T15:43:00.503Z,11.80
2018-04-14T15:45:28.715Z,11.80
2018-04-14T15:47:56.947Z,11.70
2018-04-14T15:50:25.850Z,11.80
2018-04-14T15:52:54.104Z,11.70
2018-04-14T15:55:22.173Z,11.70
2018-04-14T15:57:50.306Z,11.70
2018-04-14T16:00:18.567Z,11.70
2018-04-14T16:02:46.435Z,11.70
2018-04-14T16:05:14.083Z,11.70
2018-04-14T16:07:42.662Z,11.60
2018-04-14T16:10:10.409Z,11.60
2018-04-14T16:12:38.091Z,11.60
2018-04-14T16:15:06.480Z,11.60
2018-04-14T16:17:34.056Z,11.60
2018-04-14T16:20:01.669Z,11.60
2018-04-14T16:22:29.295Z,11.60
2018-04-14T16:24:58.904Z,11.60
2018-04-14T16:27:26.536Z,11.60
2018-04-14T16:29:54.146Z,11.60
2018-04-14T16:32:21.753Z,11.60
2018-04-14T16:34:49.322Z,11.60
2018-04-14T16:37:17.658Z,11.70
2018-04-14T16:39:45.302Z,11.70
2018-04-14T16:42:12.894Z,11.70
2018-04-14T16:44:40.498Z,11.70
2018-04-14T16:47:08.105Z,11.80
2018-04-14T16:49:35.729Z,11.80
2018-04-14T16:52:03.313Z,11.70
2018-04-14T16:54:30.886Z,11.70
2018-04-14T16:56:58.497Z,11.70
2018-04-14T16:59:26.134Z,11.70
2018-04-14T17:01:55.522Z,11.70
2018-04-14T17:04:23.772Z,11.80
2018-04-14T17:06:53.995Z,11.80
2018-04-14T17:09:22.446Z,11.70
2018-04-14T17:11:51.056Z,11.70
2018-04-14T17:14:21.786Z,11.70
2018-04-14T17:16:51.571Z,11.70
2018-04-14T17:19:22.033Z,11.70
2018-04-14T17:21:51.543Z,11.70
2018-04-14T17:24:19.807Z,11.70
2018-04-14T17:26:49.578Z,11.70
2018-04-14T17:29:23.522Z,11.70
2018-04-14T17:31:51.800Z,11.70
2018-04-14T17:34:20.187Z,11.70
2018-04-14T17:36:48.595Z,11.70
2018-04-14T17:39:16.923Z,11.60
2018-04-14T17:41:46.841Z,11.60
2018-04-14T17:44:15.363Z,11.60
2018-04-14T17:46:46.006Z,11.50
2018-04-14T17:49:16.288Z,11.50
2018-04-14T17:51:44.590Z,11.50
2018-04-14T17:54:12.872Z,11.50
2018-04-14T17:56:42.956Z,11.40
2018-04-14T17:59:11.659Z,11.40
2018-04-14T18:01:39.959Z,11.40
2018-04-14T18:04:08.390Z,11.30
2018-04-14T18:06:36.839Z,11.30
2018-04-14T18:09:06.164Z,11.30
2018-04-14T18:11:35.361Z,11.20
2018-04-14T18:14:09.325Z,11.20
2018-04-14T18:16:38.319Z,11.20
2018-04-14T18:19:07.107Z,11.20
2018-04-14T18:21:37.204Z,11.20
2018-04-14T18:24:06.507Z,11.20
2018-04-14T18:26:35.759Z,11.20
2018-04-14T18:29:06.146Z,11.10
2018-04-14T18:31:33.783Z,11.10
2018-04-14T18:34:01.379Z,11.10
2018-04-14T18:36:29.006Z,11.10
2018-04-14T18:38:57.358Z,11.10
2018-04-14T18:41:24.989Z,11.10
2018-04-14T18:43:52.577Z,11.10
2018-04-14T18:46:20.256Z,11.00
2018-04-14T18:48:47.831Z,11.00
2018-04-14T18:51:15.452Z,11.00
2018-04-14T18:53:43.085Z,11.00
2018-04-14T18:56:10.676Z,11.00
2018-04-14T18:58:38.296Z,11.00
2018-04-14T19:01:05.880Z,11.00
2018-04-14T19:03:33.489Z,11.00
2018-04-14T19:06:01.078Z,11.00
2018-04-14T19:08:28.697Z,11.00
2018-04-14T19:10:56.281Z,11.00
2018-04-14T19:13:24.662Z,11.10
2018-04-14T19:15:52.269Z,11.10
2018-04-14T19:18:19.926Z,11.10
2018-04-14T19:20:47.624Z,11.00
2018-04-14T19:23:15.248Z,11.00
2018-04-14T19:25:42.827Z,11.00
2018-04-14T19:28:11.477Z,10.90
2018-04-14T19:30:40.699Z,10.90
2018-04-14T19:33:14.967Z,10.80
2018-04-14T19:35:43.359Z,10.80
2018-04-14T19:38:12.512Z,10.80
2018-04-14T19:40:43.196Z,10.80
2018-04-14T19:43:13.183Z,10.80
2018-04-14T19:45:41.389Z,10.80
2018-04-14T19:48:09.456Z,10.90
2018-04-14T19:50:38.946Z,10.90
2018-04-14T19:53:07.345Z,10.90
2018-04-14T19:55:34.956Z,10.90
2018-04-14T19:58:02.565Z,10.80
2018-04-14T20:00:30.190Z,10.80
2018-04-14T20:02:57.793Z,10.80
2018-04-14T20:05:25.422Z,10.80
2018-04-14T20:07:53.038Z,10.70
2018-04-14T20:10:20.654Z,10.70
2018-04-14T20:12:49.057Z,10.70
2018-04-14T20:15:16.637Z,10.60
2018-04-14T20:17:44.280Z,10.60
2018-04-14T20:20:12.678Z,10.60
2018-04-14T20:22:40.250Z,10.60
2018-04-14T20:25:07.876Z,10.60
2018-04-14T20:27:35.466Z,10.60
2018-04-14T20:30:03.100Z,10.60
2018-04-14T20:32:30.738Z,10.50
2018-04-14T20:34:58.313Z,10.40
2018-04-14T20:37:26.706Z,10.20
2018-04-14T20:39:54.350Z,10.20
2018-04-14T20:42:22.717Z,10.00
2018-04-14T20:44:51.113Z,10.00
2018-04-14T20:47:19.495Z,9.90
2018-04-14T20:49:47.846Z,9.80
2018-04-14T20:52:15.485Z,9.80
2018-04-14T20:54:43.116Z,9.70
2018-04-14T20:57:11.452Z,9.50
2018-04-14T20:59:39.067Z,9.40
2018-04-14T21:02:06.683Z,9.30
2018-04-14T21:04:34.258Z,9.20
2018-04-14T21:07:01.881Z,8.90
2018-04-14T21:09:29.453Z,8.80
2018-04-14T21:11:57.067Z,8.70
2018-04-14T21:14:24.675Z,8.50
2018-04-14T21:16:52.417Z,8.40
2018-04-14T21:19:20.487Z,8.40
2018-04-14T21:21:48.569Z,8.40
2018-04-14T21:24:16.145Z,8.40
2018-04-14T21:26:43.788Z,8.40
2018-04-14T21:29:11.354Z,8.40
2018-04-14T21:31:38.944Z,8.30
2018-04-14T21:34:06.597Z,8.20
2018-04-14T21:36:34.184Z,8.20
2018-04-14T21:39:06.169Z,8.10
2018-04-14T21:41:36.188Z,8.10
2018-04-14T21:44:04.751Z,7.90
2018-04-14T21:46:33.107Z,7.80
2018-04-14T21:49:01.534Z,7.70
2018-04-14T21:51:29.862Z,7.70
2018-04-14T21:54:04.929Z,7.60
2018-04-14T21:56:35.841Z,7.60
2018-04-14T21:59:04.686Z,7.70
2018-04-14T22:01:34.915Z,7.70
2018-04-14T22:04:06.775Z,7.60
2018-04-14T22:06:37.117Z,7.50
2018-04-14T22:09:06.809Z,7.40
2018-04-14T22:11:34.889Z,7.30
2018-04-14T22:14:02.521Z,7.20
2018-04-14T22:16:30.356Z,7.10
2018-04-14T22:18:58.013Z,7.10
2018-04-14T22:21:25.676Z,7.00
2018-04-14T22:23:53.298Z,6.90
2018-04-14T22:26:20.925Z,6.80
2018-04-14T22:28:48.521Z,6.80
2018-04-14T22:31:16.485Z,6.70
2018-04-14T22:33:44.190Z,6.60
2018-04-14T22:36:11.772Z,6.60
2018-04-14T22:38:39.585Z,6.60
2018-04-14T22:41:07.205Z,6.60
2018-04-14T22:43:34.780Z,6.50
2018-04-14T22:46:02.641Z,6.50
2018-04-14T22:48:30.677Z,6.40
2018-04-14T22:51:00.693Z,6.40
2018-04-14T22:53:28.678Z,6.30
2018-04-14T22:55:56.301Z,6.40
2018-04-14T22:58:23.900Z,6.40
2018-04-14T23:00:52.277Z,6.30
2018-04-14T23:03:19.890Z,6.30
2018-04-14T23:05:47.488Z,6.30
2018-04-14T23:08:15.101Z,6.20
2018-04-14T23:10:42.748Z,6.20
2018-04-14T23:13:11.132Z,6.30
2018-04-14T23:15:38.787Z,6.30
2018-04-14T23:18:07.170Z,6.30
2018-04-14T23:20:35.496Z,6.30
2018-04-14T23:23:03.113Z,6.30
2018-04-14T23:25:30.695Z,6.30
2018-04-14T23:27:58.371Z,6.30
2018-04-14T23:30:26.014Z,6.20
2018-04-14T23:32:53.639Z,6.20
2018-04-14T23:35:21.223Z,6.10
2018-04-14T23:37:48.855Z,6.10
2018-04-14T23:40:16.426Z,6.00
2018-04-14T23:42:44.054Z,6.00
2018-04-14T23:45:11.664Z,6.00
2018-04-14T23:47:39.273Z,5.90
2018-04-14T23:50:06.959Z,5.90
2018-04-14T23:52:34.527Z,5.90
2018-04-14T23:55:02.130Z,5.90
2018-04-14T23:57:29.756Z,6.10
2018-04-14T23:59:57.354Z,6.40
